createdAt,value
2019-04-29T00:00:06.782Z,267.93
2019-04-29T00:05:12.757Z,262.57
2019-04-29T00:10:19.180Z,248.73
2019-04-29T00:15:42.813Z,355.53
2019-04-29T00:20:53.403Z,211.73
2019-04-29T00:25:59.468Z,217.17
2019-04-29T00:31:05.954Z,309.07
2019-04-29T00:36:12.097Z,255.43
2019-04-29T00:41:18.130Z,316.10
2019-04-29T00:51:30.149Z,392.32
2019-04-29T00:56:36.344Z,458.80
2019-04-29T01:01:44.235Z,594.00
2019-04-29T01:17:02.919Z,530.53
2019-04-29T01:22:09.187Z,509.22
2019-04-29T01:32:26.974Z,472.43
2019-04-29T01:37:34.994Z,438.63
2019-04-29T01:42:42.653Z,600.58
2019-04-29T01:47:49.641Z,598.30
2019-04-29T01:52:56.685Z,505.10
2019-04-29T01:58:05.315Z,470.25
2019-04-29T02:03:13.966Z,495.85
2019-04-29T02:08:24.565Z,515.33
2019-04-29T02:13:32.372Z,592.60
2019-04-29T02:23:46.798Z,543.43
2019-04-29T02:28:52.776Z,440.10
2019-04-29T02:33:58.739Z,356.80
2019-04-29T02:39:17.151Z,575.00
2019-04-29T02:49:29.970Z,494.50
2019-04-29T02:54:36.144Z,418.30
2019-04-29T02:59:43.731Z,382.40
2019-04-29T03:05:39.870Z,313.25
2019-04-29T03:10:45.468Z,298.87
2019-04-29T03:15:52.078Z,206.43
2019-04-29T03:20:59.650Z,310.80
2019-04-29T03:26:06.557Z,381.30
2019-04-29T03:31:13.760Z,420.43
2019-04-29T03:36:19.939Z,365.40
2019-04-29T03:41:26.071Z,498.87
2019-04-29T03:51:38.464Z,455.80
2019-04-29T03:56:45.643Z,471.00
2019-04-29T04:07:27.417Z,735.30
2019-04-29T04:12:34.430Z,735.77
2019-04-29T04:17:42.153Z,721.40
2019-04-29T04:22:51.376Z,674.30
2019-04-29T04:27:57.520Z,628.43
2019-04-29T04:33:05.495Z,534.17
2019-04-29T04:38:12.241Z,420.47
2019-04-29T04:43:19.099Z,398.20
2019-04-29T04:48:25.584Z,261.05
2019-04-29T04:53:34.841Z,224.10
2019-04-29T04:58:45.779Z,138.60
2019-04-29T05:03:51.801Z,122.40
2019-04-29T05:14:09.139Z,79.77
2019-04-29T05:19:15.201Z,66.15
2019-04-29T05:24:21.369Z,46.83
2019-04-29T05:29:28.756Z,43.77
2019-04-29T05:34:36.651Z,36.27
2019-04-29T05:39:44.272Z,37.77
2019-04-29T05:50:18.586Z,31.50
2019-04-29T05:55:24.590Z,32.13
2019-04-29T06:00:31.284Z,30.00
2019-04-29T06:05:37.350Z,28.33
2019-04-29T06:10:43.328Z,25.00
2019-04-29T06:15:49.345Z,27.63
2019-04-29T06:21:08.403Z,27.23
2019-04-29T06:26:04.009Z,216.90
2019-04-29T06:31:09.923Z,41.33
2019-04-29T06:36:16.188Z,124.70
2019-04-29T06:46:28.079Z,339.13
2019-04-29T06:51:34.135Z,239.25
2019-04-29T06:56:40.184Z,332.40
2019-04-29T07:01:46.408Z,243.50
2019-04-29T07:06:57.533Z,271.73
2019-04-29T07:12:01.632Z,264.40
2019-04-29T07:17:07.493Z,434.70
2019-04-29T07:22:14.590Z,624.00
2019-04-29T07:27:20.766Z,522.77
2019-04-29T07:32:26.733Z,564.07
2019-04-29T07:37:34.112Z,548.53
2019-04-29T07:42:40.733Z,530.83
2019-04-29T07:47:56.319Z,447.43
2019-04-29T07:52:56.152Z,351.87
2019-04-29T07:58:02.199Z,293.87
2019-04-29T08:03:08.144Z,229.77
2019-04-29T08:08:16.674Z,154.17
2019-04-29T08:13:22.200Z,99.80
2019-04-29T08:18:28.370Z,67.47
2019-04-29T08:33:48.622Z,31.77
2019-04-29T08:39:07.737Z,27.03
2019-04-29T08:44:16.400Z,24.97
2019-04-29T08:49:22.027Z,24.03
2019-04-29T08:54:27.883Z,22.57
2019-04-29T08:59:33.747Z,22.63
2019-04-29T09:04:52.764Z,20.47
2019-04-29T09:15:22.452Z,22.43
2019-04-29T09:20:28.485Z,21.07
2019-04-29T09:25:45.476Z,19.93
2019-04-29T09:30:51.655Z,20.13
2019-04-29T09:35:57.624Z,19.80
2019-04-29T09:41:06.281Z,18.10
2019-04-29T09:46:19.700Z,18.83
2019-04-29T09:51:27.967Z,17.63
2019-04-29T09:56:34.749Z,17.27
2019-04-29T10:06:50.018Z,17.33
2019-04-29T10:22:10.714Z,17.47
2019-04-29T10:27:16.583Z,17.80
2019-04-29T10:32:22.550Z,17.93
2019-04-29T10:37:31.491Z,17.50
2019-04-29T10:42:51.803Z,19.07
2019-04-29T10:47:59.408Z,18.23
2019-04-29T10:53:05.583Z,17.80
2019-04-29T10:58:11.657Z,17.37
2019-04-29T11:03:20.725Z,16.40
2019-04-29T11:08:27.029Z,15.93
2019-04-29T11:13:33.041Z,15.10
2019-04-29T11:18:39.430Z,14.60
2019-04-29T11:23:50.659Z,15.87
2019-04-29T11:28:59.059Z,15.10
2019-04-29T11:34:11.518Z,14.68
2019-04-29T11:39:18.571Z,14.40
2019-04-29T11:49:33.705Z,15.80
2019-04-29T11:54:39.860Z,15.43
2019-04-29T11:59:50.441Z,14.68
2019-04-29T12:04:58.016Z,15.33
2019-04-29T12:10:06.450Z,15.15
2019-04-29T12:15:25.762Z,15.87
2019-04-29T12:20:33.372Z,15.88
2019-04-29T12:25:39.364Z,14.93
2019-04-29T12:30:49.526Z,16.17
2019-04-29T12:36:03.418Z,14.87
2019-04-29T12:41:21.309Z,13.17
2019-04-29T12:46:44.290Z,12.63
2019-04-29T12:51:50.403Z,11.87
2019-04-29T12:56:56.444Z,12.95
2019-04-29T13:02:14.145Z,12.43
2019-04-29T13:07:24.764Z,12.30
2019-04-29T13:12:30.837Z,13.00
2019-04-29T13:17:47.670Z,12.80
2019-04-29T13:22:53.526Z,12.80
2019-04-29T13:28:03.912Z,13.40
2019-04-29T13:33:16.422Z,12.73
2019-04-29T13:38:18.610Z,14.90
2019-04-29T13:43:26.272Z,19.97
2019-04-29T13:48:54.801Z,16.87
2019-04-29T13:53:44.460Z,14.07
2019-04-29T13:58:51.687Z,44.33
2019-04-29T14:04:02.493Z,46.55
2019-04-29T14:09:11.126Z,193.83
2019-04-29T14:14:22.685Z,63.03
2019-04-29T14:19:44.787Z,56.03
2019-04-29T14:24:37.171Z,161.37
2019-04-29T14:29:43.465Z,160.73
2019-04-29T14:34:50.915Z,159.20
2019-04-29T14:39:57.071Z,276.17
2019-04-29T14:45:21.594Z,293.57
2019-04-29T14:50:28.060Z,310.57
2019-04-29T14:55:34.131Z,385.43
2019-04-29T15:00:49.208Z,242.30
2019-04-29T15:05:55.493Z,152.17
2019-04-29T15:11:04.133Z,107.37
2019-04-29T15:16:35.139Z,63.65
2019-04-29T15:21:44.871Z,36.73
2019-04-29T15:26:50.320Z,22.60
2019-04-29T15:31:56.288Z,15.57
2019-04-29T15:37:02.283Z,12.67
2019-04-29T15:42:08.798Z,13.20
2019-04-29T15:52:25.687Z,10.65
2019-04-29T15:57:28.706Z,8.80
2019-04-29T16:13:07.652Z,7.90
2019-04-29T16:18:14.878Z,7.30
2019-04-29T16:23:21.443Z,7.70
2019-04-29T16:28:31.593Z,7.50
2019-04-29T16:38:41.021Z,7.17
2019-04-29T16:43:48.547Z,6.10
2019-04-29T16:54:00.284Z,7.03
2019-04-29T17:04:13.897Z,6.77
2019-04-29T17:09:23.131Z,7.20
2019-04-29T17:14:29.448Z,6.90
2019-04-29T17:19:35.271Z,6.95
2019-04-29T17:24:41.340Z,7.03
2019-04-29T17:30:03.487Z,7.47
2019-04-29T17:35:10.640Z,6.13
2019-04-29T17:35:15.989Z,7.00
2019-04-29T17:40:19.410Z,7.13
2019-04-29T17:45:31.009Z,7.33
2019-04-29T17:56:05.406Z,7.60
2019-04-29T18:01:31.992Z,7.83
2019-04-29T18:06:39.275Z,7.43
2019-04-29T18:11:51.654Z,7.63
2019-04-29T18:16:53.077Z,8.17
2019-04-29T18:22:16.609Z,9.40
2019-04-29T18:27:25.302Z,9.90
2019-04-29T18:32:35.671Z,9.70
2019-04-29T18:42:48.353Z,10.80
2019-04-29T18:47:52.611Z,11.13
2019-04-29T18:52:58.587Z,10.50
2019-04-29T18:58:05.790Z,12.13
2019-04-29T19:03:14.866Z,13.60
2019-04-29T19:08:23.402Z,13.10
2019-04-29T19:13:30.790Z,11.33
2019-04-29T19:18:37.347Z,12.93
2019-04-29T19:23:43.034Z,38.60
2019-04-29T19:28:49.141Z,173.43
2019-04-29T19:49:15.807Z,384.47
2019-04-29T19:59:30.389Z,453.40
2019-04-29T20:04:38.979Z,451.13
2019-04-29T20:09:48.264Z,413.47
2019-04-29T20:14:58.287Z,386.10
2019-04-29T20:20:08.804Z,352.75
2019-04-29T20:30:23.326Z,307.40
2019-04-29T20:35:29.559Z,237.63
2019-04-29T20:40:41.525Z,224.07
2019-04-29T20:45:45.316Z,182.70
2019-04-29T20:50:52.742Z,114.13
2019-04-29T20:56:09.554Z,77.60
2019-04-29T21:01:11.097Z,90.73
2019-04-29T21:06:16.428Z,62.77
2019-04-29T21:11:27.289Z,149.70
2019-04-29T21:16:57.353Z,231.35
2019-04-29T21:22:01.141Z,106.67
2019-04-29T21:27:07.165Z,200.80
2019-04-29T21:32:13.151Z,179.80
2019-04-29T21:42:35.213Z,312.70
2019-04-29T21:47:42.660Z,204.63
2019-04-29T21:52:44.784Z,139.30
2019-04-29T21:57:54.541Z,89.50
2019-04-29T22:03:00.815Z,61.03
2019-04-29T22:08:06.672Z,44.10
2019-04-29T22:13:12.542Z,35.60
2019-04-29T22:23:28.480Z,26.63
2019-04-29T22:28:35.131Z,27.97
2019-04-29T22:38:48.640Z,23.33
2019-04-29T22:43:59.042Z,23.23
2019-04-29T22:49:05.824Z,22.40
2019-04-29T22:54:12.086Z,22.90
2019-04-29T22:59:19.137Z,22.95
2019-04-29T23:04:25.676Z,24.60
2019-04-29T23:09:31.544Z,25.37
2019-04-29T23:14:40.255Z,24.13
2019-04-29T23:24:59.588Z,24.97
2019-04-29T23:30:05.758Z,24.77
2019-04-29T23:35:11.626Z,23.53
2019-04-29T23:45:25.145Z,23.90
2019-04-29T23:50:31.290Z,25.40
2019-04-29T23:55:37.290Z,25.48
